Forum Star — WDC8278 — position and weather

sailwx.info

Track history (hours):
 
Tides and Currents Weather Stations Pressure Air Temp Water Temp Dewpoint Dewpoint Depression Visibility Wind Speed Wind Dir Waves Ship Positions

Forum Star

Owner: Forum Star LLC, Seattle, WA. More information available from US FCC via Universal Licensing System and Coast Guard Vessel Documentation Center.

Last reported at 2016-Apr-29 19:32 UTC. Time now 2016-Apr-29 19:48 UTC.
Position N 48°31' W 122°36'.

Length 40 m; draft 4.5 m.

Type: Fishing. MMSI: 367084450.

Date/timePositionNaut miles runAvg speedWind from/ knotsBaromVisibWave heightAir tempDewpointWater temp
2016-Apr-29 19:32N 48°31' W 122°36'0 0.0
2016-Apr-29 18:26N 48°31' W 122°36'0 0.0
2016-Apr-29 17:33N 48°31' W 122°36'0 0.0
2016-Apr-29 16:31N 48°31' W 122°36'0 0.0
2016-Apr-29 15:31N 48°31' W 122°36'0 0.0
2016-Apr-29 14:31N 48°31' W 122°36'0 0.0
2016-Apr-29 13:33N 48°31' W 122°36'0 0.0
2016-Apr-29 12:33N 48°31' W 122°36'53161.9
2016-Apr-29 12:13N 47°39' W 122°20'0 0.0
2016-Apr-29 11:31N 47°39' W 122°20'531632.7
2016-Apr-29 11:29N 48°31' W 122°36'0 0.0
2016-Apr-29 10:31N 48°31' W 122°36'53872.4
2016-Apr-29 10:28N 47°39' W 122°20'5350.7
2016-Apr-29 09:25N 48°31' W 122°36'0 0.0
2016-Apr-29 08:28N 48°31' W 122°36'0 0.0
2016-Apr-29 07:28N 48°31' W 122°36'0 0.0
2016-Apr-29 06:28N 48°31' W 122°36'0 0.0
2016-Apr-29 05:28N 48°31' W 122°36'0 0.0
2016-Apr-29 04:28N 48°31' W 122°36'0 0.0
2016-Apr-29 03:28N 48°31' W 122°36'0 0.0
2016-Apr-29 02:22N 48°31' W 122°36'0 0.0
2016-Apr-29 01:28N 48°31' W 122°36'0 0.0
2016-Apr-29 00:28N 48°31' W 122°36'0 0.0
2016-Apr-28 23:28N 48°31' W 122°36'0 0.0
2016-Apr-28 22:28N 48°31' W 122°36'53214.7
2016-Apr-28 22:13N 47°39' W 122°20'5380.0
2016-Apr-28 21:33N 48°31' W 122°36'53139.5
2016-Apr-28 21:10N 47°39' W 122°20'0 0.0
2016-Apr-28 20:10N 47°39' W 122°20'0 0.0
2016-Apr-28 19:22N 47°39' W 122°20'0 0.0
2016-Apr-28 18:31N 47°39' W 122°20'0 0.0
2016-Apr-28 17:31N 47°39' W 122°20'0 0.0
2016-Apr-28 15:28N 47°39' W 122°20'213546.9
2016-Apr-28 15:28N 47°59' W 122°15'2119.7
2016-Apr-28 14:25N 47°39' W 122°20'0 0.0
2016-Apr-28 08:04N 47°39' W 122°20'0 0.0
2016-Apr-28 00:28N 47°39' W 122°20'11 2.1
2016-Apr-27 19:19N 47°49' W 122°26'5 6.2
2016-Apr-27 18:32N 47°44' W 122°29'7 6.4
2016-Apr-27 17:26N 47°39' W 122°35'6 6.6
2016-Apr-27 16:33N 47°33' W 122°38'1 0.8
2016-Apr-27 15:31N 47°32' W 122°39'0 0.0
2016-Apr-27 14:31N 47°32' W 122°39'1456.7
2016-Apr-27 14:16N 47°39' W 122°20'0 0.0
2016-Apr-27 13:19N 47°39' W 122°20'14319.4
2016-Apr-27 13:16N 47°32' W 122°39'0 0.0
2016-Apr-27 12:31N 47°32' W 122°39'0 0.0
2016-Apr-27 11:31N 47°32' W 122°39'0 0.0
2016-Apr-27 10:31N 47°32' W 122°39'0 0.0
2016-Apr-27 09:31N 47°32' W 122°39'0 0.0
2016-Apr-27 08:31N 47°32' W 122°39'0 0.0
2016-Apr-27 07:31N 47°32' W 122°39'0 0.0
2016-Apr-27 06:28N 47°32' W 122°39'0 0.0
2016-Apr-27 05:31N 47°32' W 122°39'0 0.0
2016-Apr-27 04:31N 47°32' W 122°39'0 0.0
2016-Apr-27 03:31N 47°32' W 122°39'0 0.0
2016-Apr-27 02:28N 47°32' W 122°39'1488.1
2016-Apr-27 02:19N 47°39' W 122°20'1418.0
2016-Apr-27 01:31N 47°32' W 122°39'1489.3
2016-Apr-27 01:22N 47°39' W 122°20'1413.6
2016-Apr-27 00:19N 47°32' W 122°39'0 0.0
2016-Apr-26 23:31N 47°32' W 122°39'1469.9
2016-Apr-26 23:19N 47°39' W 122°20'1417.8
2016-Apr-26 22:31N 47°32' W 122°39'0 0.0
2016-Apr-26 21:31N 47°32' W 122°39'0 0.0
2016-Apr-26 20:28N 47°32' W 122°39'141135.5
2016-Apr-26 20:27N 47°39' W 122°20'0 0.0
2016-Apr-26 19:34N 47°39' W 122°20'14362.4
2016-Apr-26 19:31N 47°32' W 122°39'0 0.0
2016-Apr-26 18:31N 47°32' W 122°39'1469.0
2016-Apr-26 18:19N 47°39' W 122°20'1418.7
2016-Apr-26 17:33N 47°32' W 122°39'14164.8
2016-Apr-26 17:28N 47°39' W 122°20'1415.4
2016-Apr-26 16:33N 47°32' W 122°39'0 0.0
2016-Apr-26 15:33N 47°32' W 122°39'1442.1
2016-Apr-26 15:13N 47°39' W 122°20'1421.4
2016-Apr-26 14:33N 47°32' W 122°39'14172.0
2016-Apr-26 14:28N 47°39' W 122°20'1415.5
2016-Apr-26 13:33N 47°32' W 122°39'14161.7
2016-Apr-26 13:27N 47°39' W 122°20'1415.5
2016-Apr-26 12:33N 47°32' W 122°39'1462.1
2016-Apr-26 12:19N 47°39' W 122°20'1418.4
2016-Apr-26 11:33N 47°32' W 122°39'14183.8
2016-Apr-26 11:28N 47°39' W 122°20'1415.4
2016-Apr-26 10:33N 47°32' W 122°39'0 0.0
2016-Apr-26 09:33N 47°32' W 122°39'0 0.0
2016-Apr-26 08:33N 47°32' W 122°39'0 0.0
2016-Apr-26 07:33N 47°32' W 122°39'0 0.0
2016-Apr-26 06:33N 47°32' W 122°39'0 0.0
2016-Apr-26 05:33N 47°32' W 122°39'0 0.0
2016-Apr-26 04:30N 47°32' W 122°39'0 0.0
2016-Apr-26 03:30N 47°32' W 122°39'0 0.0
2016-Apr-26 02:33N 47°32' W 122°39'0 0.0
2016-Apr-26 01:33N 47°32' W 122°39'0 0.0
2016-Apr-26 00:33N 47°32' W 122°39'0 0.0
2016-Apr-25 23:33N 47°32' W 122°39'0 0.0
2016-Apr-25 22:33N 47°32' W 122°39'0 0.0
2016-Apr-25 21:33N 47°32' W 122°39'0 0.0
2016-Apr-25 20:33N 47°32' W 122°39'0 0.0
2016-Apr-25 19:27N 47°32' W 122°39'0 0.0
2016-Apr-25 18:33N 47°32' W 122°39'1483.7
2016-Apr-25 18:23N 47°39' W 122°20'1417.1
2016-Apr-25 17:33N 47°32' W 122°39'14415.4
2016-Apr-25 17:31N 47°39' W 122°20'1414.7
2016-Apr-25 16:33N 47°32' W 122°39'14177.0
2016-Apr-25 16:28N 47°39' W 122°20'1414.6
2016-Apr-25 15:30N 47°32' W 122°39'14623.1
2016-Apr-25 15:28N 47°39' W 122°20'1415.3
2016-Apr-25 14:33N 47°32' W 122°39'1478.7
2016-Apr-25 14:22N 47°39' W 122°20'1416.8
2016-Apr-25 13:31N 47°32' W 122°39'0 0.0
2016-Apr-25 12:31N 47°32' W 122°39'0 0.0
2016-Apr-25 11:31N 47°32' W 122°39'0 0.0
2016-Apr-25 10:31N 47°32' W 122°39'14292.9
2016-Apr-25 10:28N 47°39' W 122°20'1414.9
2016-Apr-25 09:31N 47°32' W 122°39'1445.3
2016-Apr-25 09:12N 47°39' W 122°20'1420.6
2016-Apr-25 08:31N 47°32' W 122°39'0 0.0
2016-Apr-25 07:31N 47°32' W 122°39'14267.5
2016-Apr-25 07:28N 47°39' W 122°20'1415.0
2016-Apr-25 06:31N 47°32' W 122°39'0 0.0
2016-Apr-25 05:31N 47°32' W 122°39'0 0.0
2016-Apr-25 04:31N 47°32' W 122°39'0 0.0
2016-Apr-25 03:31N 47°32' W 122°39'0 0.0
2016-Apr-25 02:31N 47°32' W 122°39'0 0.0
2016-Apr-25 01:31N 47°32' W 122°39'0 0.0
2016-Apr-25 00:31N 47°32' W 122°39'0 0.0
2016-Apr-24 23:31N 47°32' W 122°39'0 0.0
2016-Apr-24 22:31N 47°32' W 122°39'0 0.0
2016-Apr-24 21:31N 47°32' W 122°39'145662.0
2016-Apr-24 21:31N 47°39' W 122°20'1414.2
2016-Apr-24 20:31N 47°32' W 122°39'0 0.0
2016-Apr-24 19:28N 47°32' W 122°39'0 0.0
2016-Apr-24 18:31N 47°32' W 122°39'0 0.0
2016-Apr-24 17:28N 47°32' W 122°39'0 0.0
2016-Apr-24 16:31N 47°32' W 122°39'0 0.0
2016-Apr-24 15:31N 47°32' W 122°39'14137.0
2016-Apr-24 15:25N 47°39' W 122°20'0 0.0
2016-Apr-24 14:34N 47°39' W 122°20'14317.4
2016-Apr-24 14:31N 47°32' W 122°39'1414.2
2016-Apr-24 13:31N 47°39' W 122°20'14289.6
2016-Apr-24 13:28N 47°32' W 122°39'0 0.0
2016-Apr-24 12:31N 47°32' W 122°39'141960.3
2016-Apr-24 12:30N 47°39' W 122°20'1414.3
2016-Apr-24 11:31N 47°32' W 122°39'14302.4
2016-Apr-24 11:28N 47°39' W 122°20'0 0.0
2016-Apr-24 10:31N 47°39' W 122°20'14283.9
2016-Apr-24 10:28N 47°32' W 122°39'0 0.0
2016-Apr-24 09:31N 47°32' W 122°39'145677.5
2016-Apr-24 09:31N 47°39' W 122°20'1414.2
2016-Apr-24 08:31N 47°32' W 122°39'14323.4
2016-Apr-24 08:28N 47°39' W 122°20'0 0.0
2016-Apr-24 07:33N 47°39' W 122°20'14334.0
2016-Apr-24 07:31N 47°32' W 122°39'0 0.0
2016-Apr-24 06:31N 47°32' W 122°39'14309.7
2016-Apr-24 06:28N 47°39' W 122°20'1414.9
2016-Apr-24 05:31N 47°32' W 122°39'146387.2
2016-Apr-24 05:31N 47°39' W 122°20'1414.2
2016-Apr-24 04:31N 47°32' W 122°39'14336.2
2016-Apr-24 04:28N 47°39' W 122°20'0 0.0
2016-Apr-24 03:31N 47°39' W 122°20'142221.6
2016-Apr-24 03:31N 47°32' W 122°39'0 0.0
2016-Apr-24 02:31N 47°32' W 122°39'145677.5
2016-Apr-24 02:31N 47°39' W 122°20'0 0.0
2016-Apr-24 01:31N 47°39' W 122°20'146388.4
2016-Apr-24 01:31N 47°32' W 122°39'1414.8
2016-Apr-24 00:33N 47°39' W 122°20'14340.6
2016-Apr-24 00:31N 47°32' W 122°39'0 0.0
2016-Apr-23 23:31N 47°32' W 122°39'141703.2
2016-Apr-23 23:30N 47°39' W 122°20'0 0.0
2016-Apr-23 22:31N 47°39' W 122°20'142433.2
2016-Apr-23 22:31N 47°32' W 122°39'0 0.0
2016-Apr-23 21:31N 47°32' W 122°39'142216.0
2016-Apr-23 21:30N 47°39' W 122°20'1414.6
2016-Apr-23 20:32N 47°32' W 122°39'14467.5
2016-Apr-23 20:31N 47°39' W 122°20'1414.6
2016-Apr-23 19:32N 47°32' W 122°39'14485.4
2016-Apr-23 19:31N 47°39' W 122°20'1414.6
2016-Apr-23 18:32N 47°32' W 122°39'14655.0
2016-Apr-23 18:31N 47°39' W 122°20'1414.5
2016-Apr-23 17:32N 47°32' W 122°39'14192.8
2016-Apr-23 17:28N 47°39' W 122°20'1415.3
2016-Apr-23 16:32N 47°32' W 122°39'14717.9
2016-Apr-23 16:31N 47°39' W 122°20'1414.5
2016-Apr-23 15:32N 47°32' W 122°39'14700.0
2016-Apr-23 15:31N 47°39' W 122°20'1414.5
2016-Apr-23 14:32N 47°32' W 122°39'14202.0
2016-Apr-23 14:28N 47°39' W 122°20'1415.3
2016-Apr-23 13:32N 47°32' W 122°39'14532.3
2016-Apr-23 13:31N 47°39' W 122°20'1414.5
2016-Apr-23 12:32N 47°32' W 122°39'14110.3
2016-Apr-23 12:25N 47°39' W 122°20'1416.3
2016-Apr-23 11:32N 47°32' W 122°39'14709.7
2016-Apr-23 11:31N 47°39' W 122°20'1414.4
2016-Apr-23 10:32N 47°32' W 122°39'14572.7
2016-Apr-23 10:31N 47°39' W 122°20'1414.6
2016-Apr-23 09:32N 47°32' W 122°39'14561.5
2016-Apr-23 09:31N 47°39' W 122°20'1414.5
2016-Apr-23 08:32N 47°32' W 122°39'14548.0
2016-Apr-23 08:31N 47°39' W 122°20'1414.6
2016-Apr-23 07:32N 47°32' W 122°39'14690.5
2016-Apr-23 07:31N 47°39' W 122°20'1414.5
2016-Apr-23 06:32N 47°32' W 122°39'14511.0
2016-Apr-23 06:31N 47°39' W 122°20'1414.6
2016-Apr-23 05:32N 47°32' W 122°39'14456.2
2016-Apr-23 05:31N 47°39' W 122°20'1414.6
2016-Apr-23 04:32N 47°32' W 122°39'1462.6
2016-Apr-23 04:19N 47°39' W 122°20'0 0.0
2016-Apr-23 03:33N 47°39' W 122°20'14213.3
2016-Apr-23 03:29N 47°32' W 122°39'0 0.0
2016-Apr-23 02:32N 47°32' W 122°39'14116.7
2016-Apr-23 02:25N 47°39' W 122°20'1416.2
2016-Apr-23 01:32N 47°32' W 122°39'14638.7
2016-Apr-23 01:31N 47°39' W 122°20'0 0.0
2016-Apr-23 00:33N 47°39' W 122°20'14122.5
2016-Apr-23 00:26N 47°32' W 122°39'0 0.0
2016-Apr-22 23:32N 47°32' W 122°39'14574.1
2016-Apr-22 23:31N 47°39' W 122°20'1414.6
2016-Apr-22 22:32N 47°32' W 122°39'14663.6
2016-Apr-22 22:31N 47°39' W 122°20'1414.5
2016-Apr-22 21:32N 47°32' W 122°39'14560.1
2016-Apr-22 21:31N 47°39' W 122°20'0 0.0
2016-Apr-22 20:33N 47°39' W 122°20'14212.0
2016-Apr-22 20:29N 47°32' W 122°39'0 0.0
2016-Apr-22 19:32N 47°32' W 122°39'14180.6
2016-Apr-22 19:28N 47°39' W 122°20'1415.4
2016-Apr-22 18:32N 47°32' W 122°39'14580.7
2016-Apr-22 18:31N 47°39' W 122°20'1413.8
2016-Apr-22 17:29N 47°32' W 122°39'0 0.0
2016-Apr-22 16:31N 47°32' W 122°39'144633.4
2016-Apr-22 16:31N 47°39' W 122°20'0 0.0
2016-Apr-22 15:31N 47°39' W 122°20'1410191.5
2016-Apr-22 15:31N 47°32' W 122°39'0 0.0
2016-Apr-22 14:31N 47°32' W 122°39'1414.2
2016-Apr-22 13:31N 47°39' W 122°20'146386.0
2016-Apr-22 13:31N 47°32' W 122°39'1413.6
2016-Apr-22 12:28N 47°39' W 122°20'144645.2
2016-Apr-22 12:28N 47°32' W 122°39'0 0.0
2016-Apr-22 11:31N 47°32' W 122°39'147281.1
2016-Apr-22 11:31N 47°39' W 122°20'0 0.0
2016-Apr-22 10:31N 47°39' W 122°20'142831.5
2016-Apr-22 10:31N 47°32' W 122°39'1414.3
2016-Apr-22 09:31N 47°39' W 122°20'141110.8
2016-Apr-22 09:31N 47°32' W 122°39'0 0.0
2016-Apr-22 08:31N 47°32' W 122°39'0 0.0
2016-Apr-22 07:28N 47°32' W 122°39'0 0.0
2016-Apr-22 06:28N 47°32' W 122°39'0 0.0
2016-Apr-22 05:31N 47°32' W 122°39'0 0.0
2016-Apr-22 04:31N 47°32' W 122°39'0 0.0
2016-Apr-22 03:31N 47°32' W 122°39'0 0.0
2016-Apr-22 02:28N 47°32' W 122°39'0 0.0
2016-Apr-22 01:31N 47°32' W 122°39'0 0.0
2016-Apr-22 00:31N 47°32' W 122°39'0 0.0
2016-Apr-21 23:31N 47°32' W 122°39'0 0.0
2016-Apr-21 22:32N 47°32' W 122°39'0 0.0
2016-Apr-21 21:32N 47°32' W 122°39'0 0.0
2016-Apr-21 20:32N 47°32' W 122°39'0 0.0
2016-Apr-21 19:28N 47°32' W 122°39'0 0.0
2016-Apr-21 18:31N 47°32' W 122°39'0 0.0
2016-Apr-21 17:31N 47°32' W 122°39'0 0.0
2016-Apr-21 16:31N 47°32' W 122°39'0 0.0
2016-Apr-21 15:28N 47°32' W 122°39'0 0.0
2016-Apr-21 14:31N 47°32' W 122°39'0 0.0
2016-Apr-21 13:31N 47°32' W 122°39'0 0.0
2016-Apr-21 12:31N 47°32' W 122°39'0 0.0
2016-Apr-21 11:31N 47°32' W 122°39'0 0.0
2016-Apr-21 10:28N 47°32' W 122°39'0 0.0
2016-Apr-21 09:31N 47°32' W 122°39'0 0.0
2016-Apr-21 08:31N 47°32' W 122°39'0 0.0
2016-Apr-21 07:28N 47°32' W 122°39'0 0.0
2016-Apr-21 06:28N 47°32' W 122°39'0 0.0
2016-Apr-21 05:31N 47°32' W 122°39'0 0.0
2016-Apr-21 04:31N 47°32' W 122°39'0 0.0
2016-Apr-21 03:31N 47°32' W 122°39'0 0.0
2016-Apr-21 02:31N 47°32' W 122°39'0 0.0
2016-Apr-21 01:31N 47°32' W 122°39'0 0.0
2016-Apr-21 00:31N 47°32' W 122°39'0 0.0
2016-Apr-20 23:31N 47°32' W 122°39'0 0.0
2016-Apr-20 22:31N 47°32' W 122°39'0 0.0
2016-Apr-20 21:28N 47°32' W 122°39'0 0.0
2016-Apr-20 20:31N 47°32' W 122°39'0 0.0
2016-Apr-20 19:28N 47°32' W 122°39'0 0.0
2016-Apr-20 18:28N 47°32' W 122°39'0 0.0
2016-Apr-20 17:31N 47°32' W 122°39'1439.8
2016-Apr-20 17:10N 47°39' W 122°20'1422.1
2016-Apr-20 16:31N 47°32' W 122°39'0 0.0
2016-Apr-20 15:31N 47°32' W 122°39'0 0.0
2016-Apr-20 14:31N 47°32' W 122°39'0 0.0
2016-Apr-20 13:31N 47°32' W 122°39'0 0.0
2016-Apr-20 12:31N 47°32' W 122°39'0 0.0
2016-Apr-20 11:25N 47°32' W 122°39'0 0.0
2016-Apr-20 10:31N 47°32' W 122°39'0 0.0
2016-Apr-20 09:31N 47°32' W 122°39'0 0.0
2016-Apr-20 08:28N 47°32' W 122°39'0 0.0
2016-Apr-20 07:31N 47°32' W 122°39'0 0.0
2016-Apr-20 06:31N 47°32' W 122°39'0 0.0
2016-Apr-20 05:31N 47°32' W 122°39'0 0.0
2016-Apr-20 04:31N 47°32' W 122°39'0 0.0
2016-Apr-20 03:31N 47°32' W 122°39'1472.7
2016-Apr-20 03:19N 47°39' W 122°20'1417.6
2016-Apr-20 02:31N 47°32' W 122°39'0 0.0
2016-Apr-20 01:31N 47°32' W 122°39'0 0.0
2016-Apr-20 00:31N 47°32' W 122°39'0 0.0
2016-Apr-19 23:28N 47°32' W 122°39'0 0.0
2016-Apr-19 22:31N 47°32' W 122°39'0 0.0
2016-Apr-19 21:31N 47°32' W 122°39'1413.6
2016-Apr-19 20:28N 47°39' W 122°20'142128.7
2016-Apr-19 20:28N 47°32' W 122°39'  
Track history (hours):
 
Tides and Currents Weather Stations Pressure Air Temp Water Temp Dewpoint Dewpoint Depression Visibility Wind Speed Wind Dir Waves Ship Positions

Forum Star

Owner: Forum Star LLC, Seattle, WA. More information available from US FCC via Universal Licensing System and Coast Guard Vessel Documentation Center.

Last reported at 2016-Apr-29 19:32 UTC. Time now 2016-Apr-29 19:48 UTC.
Position N 48°31' W 122°36'.

Length 40 m; draft 4.5 m.

Type: Fishing. MMSI: 367084450.

Date/timePositionNaut miles runAvg speedWind from/ knotsBaromVisibWave heightAir tempDewpointWater temp
2016-Apr-29 19:32N 48°31' W 122°36'0 0.0
2016-Apr-29 18:26N 48°31' W 122°36'0 0.0
2016-Apr-29 17:33N 48°31' W 122°36'0 0.0
2016-Apr-29 16:31N 48°31' W 122°36'0 0.0
2016-Apr-29 15:31N 48°31' W 122°36'0 0.0
2016-Apr-29 14:31N 48°31' W 122°36'0 0.0
2016-Apr-29 13:33N 48°31' W 122°36'0 0.0
2016-Apr-29 12:33N 48°31' W 122°36'53161.9
2016-Apr-29 12:13N 47°39' W 122°20'0 0.0
2016-Apr-29 11:31N 47°39' W 122°20'531632.7
2016-Apr-29 11:29N 48°31' W 122°36'0 0.0
2016-Apr-29 10:31N 48°31' W 122°36'53872.4
2016-Apr-29 10:28N 47°39' W 122°20'5350.7
2016-Apr-29 09:25N 48°31' W 122°36'0 0.0
2016-Apr-29 08:28N 48°31' W 122°36'0 0.0
2016-Apr-29 07:28N 48°31' W 122°36'0 0.0
2016-Apr-29 06:28N 48°31' W 122°36'0 0.0
2016-Apr-29 05:28N 48°31' W 122°36'0 0.0
2016-Apr-29 04:28N 48°31' W 122°36'0 0.0
2016-Apr-29 03:28N 48°31' W 122°36'0 0.0
2016-Apr-29 02:22N 48°31' W 122°36'0 0.0
2016-Apr-29 01:28N 48°31' W 122°36'0 0.0
2016-Apr-29 00:28N 48°31' W 122°36'0 0.0
2016-Apr-28 23:28N 48°31' W 122°36'0 0.0
2016-Apr-28 22:28N 48°31' W 122°36'53214.7
2016-Apr-28 22:13N 47°39' W 122°20'5380.0
2016-Apr-28 21:33N 48°31' W 122°36'53139.5
2016-Apr-28 21:10N 47°39' W 122°20'0 0.0
2016-Apr-28 20:10N 47°39' W 122°20'0 0.0
2016-Apr-28 19:22N 47°39' W 122°20'0 0.0
2016-Apr-28 18:31N 47°39' W 122°20'0 0.0
2016-Apr-28 17:31N 47°39' W 122°20'0 0.0
2016-Apr-28 15:28N 47°39' W 122°20'213546.9
2016-Apr-28 15:28N 47°59' W 122°15'2119.7
2016-Apr-28 14:25N 47°39' W 122°20'0 0.0
2016-Apr-28 08:04N 47°39' W 122°20'0 0.0
2016-Apr-28 00:28N 47°39' W 122°20'11 2.1
2016-Apr-27 19:19N 47°49' W 122°26'5 6.2
2016-Apr-27 18:32N 47°44' W 122°29'7 6.4
2016-Apr-27 17:26N 47°39' W 122°35'6 6.6
2016-Apr-27 16:33N 47°33' W 122°38'1 0.8
2016-Apr-27 15:31N 47°32' W 122°39'0 0.0
2016-Apr-27 14:31N 47°32' W 122°39'1456.7
2016-Apr-27 14:16N 47°39' W 122°20'0 0.0
2016-Apr-27 13:19N 47°39' W 122°20'14319.4
2016-Apr-27 13:16N 47°32' W 122°39'0 0.0
2016-Apr-27 12:31N 47°32' W 122°39'0 0.0
2016-Apr-27 11:31N 47°32' W 122°39'0 0.0
2016-Apr-27 10:31N 47°32' W 122°39'0 0.0
2016-Apr-27 09:31N 47°32' W 122°39'0 0.0
2016-Apr-27 08:31N 47°32' W 122°39'0 0.0
2016-Apr-27 07:31N 47°32' W 122°39'0 0.0
2016-Apr-27 06:28N 47°32' W 122°39'0 0.0
2016-Apr-27 05:31N 47°32' W 122°39'0 0.0
2016-Apr-27 04:31N 47°32' W 122°39'0 0.0
2016-Apr-27 03:31N 47°32' W 122°39'0 0.0
2016-Apr-27 02:28N 47°32' W 122°39'1488.1
2016-Apr-27 02:19N 47°39' W 122°20'1418.0
2016-Apr-27 01:31N 47°32' W 122°39'1489.3
2016-Apr-27 01:22N 47°39' W 122°20'1413.6
2016-Apr-27 00:19N 47°32' W 122°39'0 0.0
2016-Apr-26 23:31N 47°32' W 122°39'1469.9
2016-Apr-26 23:19N 47°39' W 122°20'1417.8
2016-Apr-26 22:31N 47°32' W 122°39'0 0.0
2016-Apr-26 21:31N 47°32' W 122°39'0 0.0
2016-Apr-26 20:28N 47°32' W 122°39'141135.5
2016-Apr-26 20:27N 47°39' W 122°20'0 0.0
2016-Apr-26 19:34N 47°39' W 122°20'14362.4
2016-Apr-26 19:31N 47°32' W 122°39'0 0.0
2016-Apr-26 18:31N 47°32' W 122°39'1469.0
2016-Apr-26 18:19N 47°39' W 122°20'1418.7
2016-Apr-26 17:33N 47°32' W 122°39'14164.8
2016-Apr-26 17:28N 47°39' W 122°20'1415.4
2016-Apr-26 16:33N 47°32' W 122°39'0 0.0
2016-Apr-26 15:33N 47°32' W 122°39'1442.1
2016-Apr-26 15:13N 47°39' W 122°20'1421.4
2016-Apr-26 14:33N 47°32' W 122°39'14172.0
2016-Apr-26 14:28N 47°39' W 122°20'1415.5
2016-Apr-26 13:33N 47°32' W 122°39'14161.7
2016-Apr-26 13:27N 47°39' W 122°20'1415.5
2016-Apr-26 12:33N 47°32' W 122°39'1462.1
2016-Apr-26 12:19N 47°39' W 122°20'1418.4
2016-Apr-26 11:33N 47°32' W 122°39'14183.8
2016-Apr-26 11:28N 47°39' W 122°20'1415.4
2016-Apr-26 10:33N 47°32' W 122°39'0 0.0
2016-Apr-26 09:33N 47°32' W 122°39'0 0.0
2016-Apr-26 08:33N 47°32' W 122°39'0 0.0
2016-Apr-26 07:33N 47°32' W 122°39'0 0.0
2016-Apr-26 06:33N 47°32' W 122°39'0 0.0
2016-Apr-26 05:33N 47°32' W 122°39'0 0.0
2016-Apr-26 04:30N 47°32' W 122°39'0 0.0
2016-Apr-26 03:30N 47°32' W 122°39'0 0.0
2016-Apr-26 02:33N 47°32' W 122°39'0 0.0
2016-Apr-26 01:33N 47°32' W 122°39'0 0.0
2016-Apr-26 00:33N 47°32' W 122°39'0 0.0
2016-Apr-25 23:33N 47°32' W 122°39'0 0.0
2016-Apr-25 22:33N 47°32' W 122°39'0 0.0
2016-Apr-25 21:33N 47°32' W 122°39'0 0.0
2016-Apr-25 20:33N 47°32' W 122°39'0 0.0
2016-Apr-25 19:27N 47°32' W 122°39'0 0.0
2016-Apr-25 18:33N 47°32' W 122°39'1483.7
2016-Apr-25 18:23N 47°39' W 122°20'1417.1
2016-Apr-25 17:33N 47°32' W 122°39'14415.4
2016-Apr-25 17:31N 47°39' W 122°20'1414.7
2016-Apr-25 16:33N 47°32' W 122°39'14177.0
2016-Apr-25 16:28N 47°39' W 122°20'1414.6
2016-Apr-25 15:30N 47°32' W 122°39'14623.1
2016-Apr-25 15:28N 47°39' W 122°20'1415.3
2016-Apr-25 14:33N 47°32' W 122°39'1478.7
2016-Apr-25 14:22N 47°39' W 122°20'1416.8
2016-Apr-25 13:31N 47°32' W 122°39'0 0.0
2016-Apr-25 12:31N 47°32' W 122°39'0 0.0
2016-Apr-25 11:31N 47°32' W 122°39'0 0.0
2016-Apr-25 10:31N 47°32' W 122°39'14292.9
2016-Apr-25 10:28N 47°39' W 122°20'1414.9
2016-Apr-25 09:31N 47°32' W 122°39'1445.3
2016-Apr-25 09:12N 47°39' W 122°20'1420.6
2016-Apr-25 08:31N 47°32' W 122°39'0 0.0
2016-Apr-25 07:31N 47°32' W 122°39'14267.5
2016-Apr-25 07:28N 47°39' W 122°20'1415.0
2016-Apr-25 06:31N 47°32' W 122°39'0 0.0
2016-Apr-25 05:31N 47°32' W 122°39'0 0.0
2016-Apr-25 04:31N 47°32' W 122°39'0 0.0
2016-Apr-25 03:31N 47°32' W 122°39'0 0.0
2016-Apr-25 02:31N 47°32' W 122°39'0 0.0
2016-Apr-25 01:31N 47°32' W 122°39'0 0.0
2016-Apr-25 00:31N 47°32' W 122°39'0 0.0
2016-Apr-24 23:31N 47°32' W 122°39'0 0.0
2016-Apr-24 22:31N 47°32' W 122°39'0 0.0
2016-Apr-24 21:31N 47°32' W 122°39'145662.0
2016-Apr-24 21:31N 47°39' W 122°20'1414.2
2016-Apr-24 20:31N 47°32' W 122°39'0 0.0
2016-Apr-24 19:28N 47°32' W 122°39'0 0.0
2016-Apr-24 18:31N 47°32' W 122°39'0 0.0
2016-Apr-24 17:28N 47°32' W 122°39'0 0.0
2016-Apr-24 16:31N 47°32' W 122°39'0 0.0
2016-Apr-24 15:31N 47°32' W 122°39'14137.0
2016-Apr-24 15:25N 47°39' W 122°20'0 0.0
2016-Apr-24 14:34N 47°39' W 122°20'14317.4
2016-Apr-24 14:31N 47°32' W 122°39'1414.2
2016-Apr-24 13:31N 47°39' W 122°20'14289.6
2016-Apr-24 13:28N 47°32' W 122°39'0 0.0
2016-Apr-24 12:31N 47°32' W 122°39'141960.3
2016-Apr-24 12:30N 47°39' W 122°20'1414.3
2016-Apr-24 11:31N 47°32' W 122°39'14302.4
2016-Apr-24 11:28N 47°39' W 122°20'0 0.0
2016-Apr-24 10:31N 47°39' W 122°20'14283.9
2016-Apr-24 10:28N 47°32' W 122°39'0 0.0
2016-Apr-24 09:31N 47°32' W 122°39'145677.5
2016-Apr-24 09:31N 47°39' W 122°20'1414.2
2016-Apr-24 08:31N 47°32' W 122°39'14323.4
2016-Apr-24 08:28N 47°39' W 122°20'0 0.0
2016-Apr-24 07:33N 47°39' W 122°20'14334.0
2016-Apr-24 07:31N 47°32' W 122°39'0 0.0
2016-Apr-24 06:31N 47°32' W 122°39'14309.7
2016-Apr-24 06:28N 47°39' W 122°20'1414.9
2016-Apr-24 05:31N 47°32' W 122°39'146387.2
2016-Apr-24 05:31N 47°39' W 122°20'1414.2
2016-Apr-24 04:31N 47°32' W 122°39'14336.2
2016-Apr-24 04:28N 47°39' W 122°20'0 0.0
2016-Apr-24 03:31N 47°39' W 122°20'142221.6
2016-Apr-24 03:31N 47°32' W 122°39'0 0.0
2016-Apr-24 02:31N 47°32' W 122°39'145677.5
2016-Apr-24 02:31N 47°39' W 122°20'0 0.0
2016-Apr-24 01:31N 47°39' W 122°20'146388.4
2016-Apr-24 01:31N 47°32' W 122°39'1414.8
2016-Apr-24 00:33N 47°39' W 122°20'14340.6
2016-Apr-24 00:31N 47°32' W 122°39'0 0.0
2016-Apr-23 23:31N 47°32' W 122°39'141703.2
2016-Apr-23 23:30N 47°39' W 122°20'0 0.0
2016-Apr-23 22:31N 47°39' W 122°20'142433.2
2016-Apr-23 22:31N 47°32' W 122°39'0 0.0
2016-Apr-23 21:31N 47°32' W 122°39'142216.0
2016-Apr-23 21:30N 47°39' W 122°20'1414.6
2016-Apr-23 20:32N 47°32' W 122°39'14467.5
2016-Apr-23 20:31N 47°39' W 122°20'1414.6
2016-Apr-23 19:32N 47°32' W 122°39'14485.4
2016-Apr-23 19:31N 47°39' W 122°20'1414.6
2016-Apr-23 18:32N 47°32' W 122°39'14655.0
2016-Apr-23 18:31N 47°39' W 122°20'1414.5
2016-Apr-23 17:32N 47°32' W 122°39'14192.8
2016-Apr-23 17:28N 47°39' W 122°20'1415.3
2016-Apr-23 16:32N 47°32' W 122°39'14717.9
2016-Apr-23 16:31N 47°39' W 122°20'1414.5
2016-Apr-23 15:32N 47°32' W 122°39'14700.0
2016-Apr-23 15:31N 47°39' W 122°20'1414.5
2016-Apr-23 14:32N 47°32' W 122°39'14202.0
2016-Apr-23 14:28N 47°39' W 122°20'1415.3
2016-Apr-23 13:32N 47°32' W 122°39'14532.3
2016-Apr-23 13:31N 47°39' W 122°20'1414.5
2016-Apr-23 12:32N 47°32' W 122°39'14110.3
2016-Apr-23 12:25N 47°39' W 122°20'1416.3
2016-Apr-23 11:32N 47°32' W 122°39'14709.7
2016-Apr-23 11:31N 47°39' W 122°20'1414.4
2016-Apr-23 10:32N 47°32' W 122°39'14572.7
2016-Apr-23 10:31N 47°39' W 122°20'1414.6
2016-Apr-23 09:32N 47°32' W 122°39'14561.5
2016-Apr-23 09:31N 47°39' W 122°20'1414.5
2016-Apr-23 08:32N 47°32' W 122°39'14548.0
2016-Apr-23 08:31N 47°39' W 122°20'1414.6
2016-Apr-23 07:32N 47°32' W 122°39'14690.5
2016-Apr-23 07:31N 47°39' W 122°20'1414.5
2016-Apr-23 06:32N 47°32' W 122°39'14511.0
2016-Apr-23 06:31N 47°39' W 122°20'1414.6
2016-Apr-23 05:32N 47°32' W 122°39'14456.2
2016-Apr-23 05:31N 47°39' W 122°20'1414.6
2016-Apr-23 04:32N 47°32' W 122°39'1462.6
2016-Apr-23 04:19N 47°39' W 122°20'0 0.0
2016-Apr-23 03:33N 47°39' W 122°20'14213.3
2016-Apr-23 03:29N 47°32' W 122°39'0 0.0
2016-Apr-23 02:32N 47°32' W 122°39'14116.7
2016-Apr-23 02:25N 47°39' W 122°20'1416.2
2016-Apr-23 01:32N 47°32' W 122°39'14638.7
2016-Apr-23 01:31N 47°39' W 122°20'0 0.0
2016-Apr-23 00:33N 47°39' W 122°20'14122.5
2016-Apr-23 00:26N 47°32' W 122°39'0 0.0
2016-Apr-22 23:32N 47°32' W 122°39'14574.1
2016-Apr-22 23:31N 47°39' W 122°20'1414.6
2016-Apr-22 22:32N 47°32' W 122°39'14663.6
2016-Apr-22 22:31N 47°39' W 122°20'1414.5
2016-Apr-22 21:32N 47°32' W 122°39'14560.1
2016-Apr-22 21:31N 47°39' W 122°20'0 0.0
2016-Apr-22 20:33N 47°39' W 122°20'14212.0
2016-Apr-22 20:29N 47°32' W 122°39'0 0.0
2016-Apr-22 19:32N 47°32' W 122°39'14180.6
2016-Apr-22 19:28N 47°39' W 122°20'1415.4
2016-Apr-22 18:32N 47°32' W 122°39'14580.7
2016-Apr-22 18:31N 47°39' W 122°20'1413.8
2016-Apr-22 17:29N 47°32' W 122°39'0 0.0
2016-Apr-22 16:31N 47°32' W 122°39'144633.4
2016-Apr-22 16:31N 47°39' W 122°20'0 0.0
2016-Apr-22 15:31N 47°39' W 122°20'1410191.5
2016-Apr-22 15:31N 47°32' W 122°39'0 0.0
2016-Apr-22 14:31N 47°32' W 122°39'1414.2
2016-Apr-22 13:31N 47°39' W 122°20'146386.0
2016-Apr-22 13:31N 47°32' W 122°39'1413.6
2016-Apr-22 12:28N 47°39' W 122°20'144645.2
2016-Apr-22 12:28N 47°32' W 122°39'0 0.0
2016-Apr-22 11:31N 47°32' W 122°39'147281.1
2016-Apr-22 11:31N 47°39' W 122°20'0 0.0
2016-Apr-22 10:31N 47°39' W 122°20'142831.5
2016-Apr-22 10:31N 47°32' W 122°39'1414.3
2016-Apr-22 09:31N 47°39' W 122°20'141110.8
2016-Apr-22 09:31N 47°32' W 122°39'0 0.0
2016-Apr-22 08:31N 47°32' W 122°39'0 0.0
2016-Apr-22 07:28N 47°32' W 122°39'0 0.0
2016-Apr-22 06:28N 47°32' W 122°39'0 0.0
2016-Apr-22 05:31N 47°32' W 122°39'0 0.0
2016-Apr-22 04:31N 47°32' W 122°39'0 0.0
2016-Apr-22 03:31N 47°32' W 122°39'0 0.0
2016-Apr-22 02:28N 47°32' W 122°39'0 0.0
2016-Apr-22 01:31N 47°32' W 122°39'0 0.0
2016-Apr-22 00:31N 47°32' W 122°39'0 0.0
2016-Apr-21 23:31N 47°32' W 122°39'0 0.0
2016-Apr-21 22:32N 47°32' W 122°39'0 0.0
2016-Apr-21 21:32N 47°32' W 122°39'0 0.0
2016-Apr-21 20:32N 47°32' W 122°39'0 0.0
2016-Apr-21 19:28N 47°32' W 122°39'0 0.0
2016-Apr-21 18:31N 47°32' W 122°39'0 0.0
2016-Apr-21 17:31N 47°32' W 122°39'0 0.0
2016-Apr-21 16:31N 47°32' W 122°39'0 0.0
2016-Apr-21 15:28N 47°32' W 122°39'0 0.0
2016-Apr-21 14:31N 47°32' W 122°39'0 0.0
2016-Apr-21 13:31N 47°32' W 122°39'0 0.0
2016-Apr-21 12:31N 47°32' W 122°39'0 0.0
2016-Apr-21 11:31N 47°32' W 122°39'0 0.0
2016-Apr-21 10:28N 47°32' W 122°39'0 0.0
2016-Apr-21 09:31N 47°32' W 122°39'0 0.0
2016-Apr-21 08:31N 47°32' W 122°39'0 0.0
2016-Apr-21 07:28N 47°32' W 122°39'0 0.0
2016-Apr-21 06:28N 47°32' W 122°39'0 0.0
2016-Apr-21 05:31N 47°32' W 122°39'0 0.0
2016-Apr-21 04:31N 47°32' W 122°39'0 0.0
2016-Apr-21 03:31N 47°32' W 122°39'0 0.0
2016-Apr-21 02:31N 47°32' W 122°39'0 0.0
2016-Apr-21 01:31N 47°32' W 122°39'0 0.0
2016-Apr-21 00:31N 47°32' W 122°39'0 0.0
2016-Apr-20 23:31N 47°32' W 122°39'0 0.0
2016-Apr-20 22:31N 47°32' W 122°39'0 0.0
2016-Apr-20 21:28N 47°32' W 122°39'0 0.0
2016-Apr-20 20:31N 47°32' W 122°39'0 0.0
2016-Apr-20 19:28N 47°32' W 122°39'0 0.0
2016-Apr-20 18:28N 47°32' W 122°39'0 0.0
2016-Apr-20 17:31N 47°32' W 122°39'1439.8
2016-Apr-20 17:10N 47°39' W 122°20'1422.1
2016-Apr-20 16:31N 47°32' W 122°39'0 0.0
2016-Apr-20 15:31N 47°32' W 122°39'0 0.0
2016-Apr-20 14:31N 47°32' W 122°39'0 0.0
2016-Apr-20 13:31N 47°32' W 122°39'0 0.0
2016-Apr-20 12:31N 47°32' W 122°39'0 0.0
2016-Apr-20 11:25N 47°32' W 122°39'0 0.0
2016-Apr-20 10:31N 47°32' W 122°39'0 0.0
2016-Apr-20 09:31N 47°32' W 122°39'0 0.0
2016-Apr-20 08:28N 47°32' W 122°39'0 0.0
2016-Apr-20 07:31N 47°32' W 122°39'0 0.0
2016-Apr-20 06:31N 47°32' W 122°39'0 0.0
2016-Apr-20 05:31N 47°32' W 122°39'0 0.0
2016-Apr-20 04:31N 47°32' W 122°39'0 0.0
2016-Apr-20 03:31N 47°32' W 122°39'1472.7
2016-Apr-20 03:19N 47°39' W 122°20'1417.6
2016-Apr-20 02:31N 47°32' W 122°39'0 0.0
2016-Apr-20 01:31N 47°32' W 122°39'0 0.0
2016-Apr-20 00:31N 47°32' W 122°39'0 0.0
2016-Apr-19 23:28N 47°32' W 122°39'0 0.0
2016-Apr-19 22:31N 47°32' W 122°39'0 0.0
2016-Apr-19 21:31N 47°32' W 122°39'1413.6
2016-Apr-19 20:28N 47°39' W 122°20'142128.7
2016-Apr-19 20:28N 47°32' W 122°39'  

Dump ship's entire track history